Time;durP1;ratioP1;P1;durP2;ratioP2;P2;SDS_P1;SDS_P2;PMS_P1;PMS_P2;Temp;Humidity;BMP_temperature;BMP_pressure;BME280_temperature;BME280_humidity;BME280_pressure;Samples;Min_cycle;Max_cycle;Signal;HPM_P1;HPM_P2
2023/04/10 00:01:53;;;;;;;43.88;29.60;;;8.80;99.90;;;;;;5032821;28;20193;-75
2023/04/10 00:04:20;;;;;;;40.42;28.42;;;8.70;99.90;;;;;;5032966;28;20234;-75
2023/04/10 00:06:48;;;;;;;46.63;29.10;;;8.70;99.90;;;;;;5039947;28;20254;-74
2023/04/10 00:09:14;;;;;;;44.65;29.27;;;8.80;99.90;;;;;;5041245;28;20208;-75
2023/04/10 00:11:41;;;;;;;45.92;31.60;;;8.90;99.90;;;;;;5043345;28;20228;-73
2023/04/10 00:14:10;;;;;;;45.53;29.95;;;8.90;99.90;;;;;;5040940;28;20243;-74
2023/04/10 00:16:37;;;;;;;44.67;30.60;;;8.80;99.90;;;;;;5032677;28;20228;-74
2023/04/10 00:19:04;;;;;;;47.45;30.83;;;8.90;99.90;;;;;;5027105;28;20212;-75
2023/04/10 00:21:30;;;;;;;47.92;30.10;;;8.80;99.90;;;;;;5038081;28;20235;-75
2023/04/10 00:23:57;;;;;;;48.38;30.48;;;8.80;99.90;;;;;;5036858;28;20241;-76
2023/04/10 00:26:25;;;;;;;43.58;29.40;;;8.80;99.90;;;;;;5036519;28;20219;-75
2023/04/10 00:28:52;;;;;;;46.55;31.05;;;8.80;99.90;;;;;;5026322;28;20200;-75
2023/04/10 00:31:20;;;;;;;53.58;33.28;;;8.80;99.90;;;;;;5033953;28;20314;-76
2023/04/10 00:33:47;;;;;;;49.15;30.90;;;8.80;99.90;;;;;;5030010;28;20220;-74
2023/04/10 00:36:14;;;;;;;48.53;31.20;;;8.70;99.90;;;;;;5034802;28;20208;-75
2023/04/10 00:38:41;;;;;;;51.70;33.50;;;8.70;99.90;;;;;;5034267;28;20287;-74
2023/04/10 00:41:08;;;;;;;51.10;33.50;;;8.70;99.90;;;;;;5034324;28;20204;-76
2023/04/10 00:43:35;;;;;;;50.42;29.45;;;8.70;99.90;;;;;;5034004;28;20224;-77
2023/04/10 00:46:02;;;;;;;46.72;32.00;;;8.80;99.90;;;;;;5031219;28;20279;-75
2023/04/10 00:48:30;;;;;;;52.40;31.95;;;8.70;99.90;;;;;;5034817;28;20320;-77
2023/04/10 00:50:57;;;;;;;45.75;29.42;;;8.70;99.90;;;;;;5023486;28;20203;-76
2023/04/10 00:53:24;;;;;;;45.42;30.05;;;8.70;99.90;;;;;;5028366;28;20228;-75
2023/04/10 00:55:51;;;;;;;47.10;32.03;;;8.60;99.90;;;;;;5035659;28;20216;-77
2023/04/10 00:58:18;;;;;;;42.85;30.00;;;8.50;99.90;;;;;;5029449;28;20290;-77
2023/04/10 01:00:46;;;;;;;51.10;32.20;;;8.50;99.90;;;;;;5032203;28;20206;-75
2023/04/10 01:03:17;;;;;;;49.67;31.80;;;8.50;99.90;;;;;;5032394;28;20757;-72
2023/04/10 01:05:57;;;;;;;52.35;31.85;;;8.40;99.90;;;;;;5031851;28;20556;-76
2023/04/10 01:08:36;;;;;;;48.50;32.08;;;8.50;99.90;;;;;;5016382;28;20557;-76
2023/04/10 01:11:09;;;;;;;49.53;30.58;;;8.40;99.90;;;;;;5033023;28;20294;-79
2023/04/10 01:13:45;;;;;;;53.58;35.90;;;8.40;99.90;;;;;;5033423;28;20702;-77
2023/04/10 01:16:19;;;;;;;60.13;34.92;;;8.40;99.90;;;;;;5033619;28;20224;-75
2023/04/10 01:18:52;;;;;;;52.28;35.40;;;8.30;99.90;;;;;;5042180;28;20230;-76
2023/04/10 01:21:22;;;;;;;58.60;35.08;;;8.30;99.90;;;;;;5029656;28;20240;-75
2023/04/10 01:24:06;;;;;;;50.85;32.58;;;8.30;99.90;;;;;;5032181;28;20623;-78
2023/04/10 01:26:44;;;;;;;57.72;34.15;;;8.30;99.90;;;;;;5031809;28;20204;-76
2023/04/10 01:29:18;;;;;;;52.85;33.40;;;8.30;99.90;;;;;;5026786;28;20197;-76
2023/04/10 01:31:52;;;;;;;61.38;35.78;;;8.30;99.90;;;;;;5027934;28;20251;-76
2023/04/10 01:34:25;;;;;;;50.20;34.45;;;8.30;99.90;;;;;;5033480;28;20259;-74
2023/04/10 01:36:56;;;;;;;47.47;33.33;;;8.30;99.90;;;;;;5028921;28;20216;-76
2023/04/10 01:39:26;;;;;;;50.08;33.45;;;8.20;99.90;;;;;;5037838;28;20257;-75
2023/04/10 01:41:56;;;;;;;51.58;34.47;;;8.30;99.90;;;;;;5028573;28;20200;-77
2023/04/10 01:44:29;;;;;;;47.60;33.80;;;8.30;99.90;;;;;;5030392;28;20312;-76
2023/04/10 01:46:57;;;;;;;46.45;33.28;;;8.20;99.90;;;;;;5028374;28;20227;-75
2023/04/10 01:49:27;;;;;;;55.47;35.95;;;8.30;99.90;;;;;;5029879;28;20262;-75
2023/04/10 01:51:57;;;;;;;55.20;36.08;;;8.20;99.90;;;;;;5028374;28;20203;-74
2023/04/10 01:54:25;;;;;;;69.95;42.40;;;8.20;99.90;;;;;;5029510;28;20656;-73
2023/04/10 01:56:52;;;;;;;56.78;39.58;;;8.20;99.90;;;;;;5035931;28;20219;-75
2023/04/10 01:59:20;;;;;;;60.25;36.60;;;8.20;99.90;;;;;;5026874;28;20290;-75
2023/04/10 02:01:48;;;;;;;54.55;34.90;;;8.30;99.90;;;;;;5026991;28;20202;-76
2023/04/10 02:04:15;;;;;;;52.05;33.13;;;8.10;99.90;;;;;;5032301;28;20718;-73
2023/04/10 02:06:49;;;;;;;51.30;35.80;;;8.30;99.90;;;;;;5032742;28;20279;-75
2023/04/10 02:09:20;;;;;;;52.38;34.67;;;8.20;99.90;;;;;;5029411;28;20206;-76
2023/04/10 02:11:51;;;;;;;58.45;35.83;;;8.10;99.90;;;;;;5029503;28;20292;-74
2023/04/10 02:14:21;;;;;;;48.53;32.85;;;8.10;99.90;;;;;;5023639;28;20232;-76
2023/04/10 02:16:53;;;;;;;54.47;35.20;;;8.00;99.90;;;;;;5031892;28;20212;-75
2023/04/10 02:19:22;;;;;;;56.55;35.50;;;8.00;99.90;;;;;;5027046;28;20201;-75
2023/04/10 02:21:50;;;;;;;53.05;34.35;;;8.00;99.90;;;;;;5029621;28;20199;-75
2023/04/10 02:24:17;;;;;;;61.25;38.17;;;8.00;99.90;;;;;;5028985;28;20239;-78
2023/04/10 02:26:45;;;;;;;53.22;34.75;;;7.90;99.90;;;;;;5032003;28;20642;-76
2023/04/10 02:29:12;;;;;;;57.90;37.13;;;7.90;99.90;;;;;;5029112;28;20581;-76
2023/04/10 02:31:39;;;;;;;57.25;37.00;;;7.80;99.90;;;;;;5025198;28;20212;-75
2023/04/10 02:34:08;;;;;;;53.05;36.58;;;7.80;99.90;;;;;;5032103;28;20226;-75
2023/04/10 02:36:35;;;;;;;56.30;35.80;;;7.80;99.90;;;;;;5029968;28;20221;-75
2023/04/10 02:39:02;;;;;;;51.17;35.08;;;7.80;99.90;;;;;;5028326;28;20282;-75
2023/04/10 02:41:30;;;;;;;61.03;37.85;;;7.70;99.90;;;;;;5023130;28;20207;-76
2023/04/10 02:43:57;;;;;;;53.50;37.05;;;7.60;99.90;;;;;;5033006;28;20659;-74
2023/04/10 02:46:24;;;;;;;56.50;36.97;;;7.60;99.90;;;;;;5026327;28;20289;-76
2023/04/10 02:48:52;;;;;;;56.50;35.97;;;7.60;99.90;;;;;;5023093;28;20241;-75
2023/04/10 02:51:20;;;;;;;57.88;37.53;;;7.60;99.90;;;;;;5025126;28;20209;-75
2023/04/10 02:53:48;;;;;;;56.65;36.15;;;7.50;99.90;;;;;;5029742;28;20359;-74
2023/04/10 02:56:15;;;;;;;60.63;36.75;;;7.50;99.90;;;;;;5033914;28;20211;-75
2023/04/10 02:58:44;;;;;;;62.55;38.28;;;7.40;99.90;;;;;;5038248;28;20230;-76
2023/04/10 03:01:12;;;;;;;59.92;37.58;;;7.50;99.90;;;;;;5032122;28;20197;-75
2023/04/10 03:03:39;;;;;;;65.93;38.15;;;7.40;99.90;;;;;;5031083;28;20227;-74
2023/04/10 03:06:06;;;;;;;62.72;38.08;;;7.40;99.90;;;;;;5026070;28;20290;-77
2023/04/10 03:08:35;;;;;;;66.65;39.88;;;7.40;99.90;;;;;;5034329;28;20243;-75
2023/04/10 03:11:02;;;;;;;59.65;39.80;;;7.40;99.90;;;;;;5037711;28;20265;-73
2023/04/10 03:13:28;;;;;;;59.28;40.22;;;7.40;99.90;;;;;;5034664;28;20226;-75
2023/04/10 03:15:55;;;;;;;63.35;37.70;;;7.30;99.90;;;;;;5033096;28;20238;-76
2023/04/10 03:18:22;;;;;;;57.55;37.35;;;7.30;99.90;;;;;;5030089;28;20259;-76
2023/04/10 03:20:49;;;;;;;56.58;36.50;;;7.30;99.90;;;;;;5018027;28;20572;-74
2023/04/10 03:23:16;;;;;;;58.83;38.38;;;7.30;99.90;;;;;;5029589;28;20774;-75
2023/04/10 03:25:44;;;;;;;59.60;36.63;;;7.20;99.90;;;;;;5039693;28;20286;-75
2023/04/10 03:28:11;;;;;;;55.53;37.65;;;7.20;99.90;;;;;;5035243;28;20670;-76
2023/04/10 03:30:38;;;;;;;56.15;35.97;;;7.20;99.90;;;;;;5028631;28;20302;-77
2023/04/10 03:33:05;;;;;;;61.53;37.00;;;7.20;99.90;;;;;;5035748;28;20321;-75
2023/04/10 03:35:32;;;;;;;59.95;37.17;;;7.20;99.90;;;;;;5031510;28;20286;-75
2023/04/10 03:37:59;;;;;;;53.10;34.28;;;7.20;99.90;;;;;;5024612;28;20742;-77
2023/04/10 03:40:26;;;;;;;52.85;35.05;;;7.20;99.90;;;;;;5035089;28;20272;-75
2023/04/10 03:42:54;;;;;;;64.70;38.35;;;7.10;99.90;;;;;;5031432;28;20250;-76
2023/04/10 03:45:21;;;;;;;54.63;37.95;;;7.10;99.90;;;;;;5024971;28;20297;-75
2023/04/10 03:47:49;;;;;;;54.92;36.50;;;7.10;99.90;;;;;;5033731;28;20285;-73
2023/04/10 03:50:16;;;;;;;60.30;37.65;;;7.10;99.90;;;;;;5021022;28;20202;-76
2023/04/10 03:52:44;;;;;;;56.03;37.78;;;7.10;99.90;;;;;;5034655;28;20597;-77
2023/04/10 03:55:11;;;;;;;58.08;38.95;;;7.10;99.90;;;;;;5024491;28;20299;-75
2023/04/10 03:57:38;;;;;;;60.90;37.47;;;7.10;99.90;;;;;;5034062;28;20413;-77
2023/04/10 04:00:08;;;;;;;60.03;35.97;;;7.00;99.90;;;;;;5029416;28;20204;-74
2023/04/10 04:02:34;;;;;;;57.00;36.10;;;7.00;99.90;;;;;;5027961;28;20661;-74
2023/04/10 04:05:01;;;;;;;63.60;36.45;;;6.90;99.90;;;;;;5036803;28;20671;-75
2023/04/10 04:07:28;;;;;;;60.83;35.78;;;7.00;99.90;;;;;;5031981;28;20200;-76
2023/04/10 04:09:55;;;;;;;53.67;35.58;;;6.90;99.90;;;;;;5039559;28;20290;-77
2023/04/10 04:12:22;;;;;;;53.70;36.65;;;7.00;99.90;;;;;;5035780;28;20251;-75
2023/04/10 04:14:49;;;;;;;51.80;34.33;;;7.00;99.90;;;;;;5034911;28;20695;-74
2023/04/10 04:17:17;;;;;;;59.20;36.78;;;7.00;99.90;;;;;;5035455;28;20218;-74
2023/04/10 04:19:44;;;;;;;54.58;35.65;;;7.00;99.90;;;;;;5034176;28;20300;-74
2023/04/10 04:22:11;;;;;;;54.30;34.28;;;7.00;99.90;;;;;;5034728;28;20201;-76
2023/04/10 04:24:38;;;;;;;61.72;36.40;;;7.10;99.90;;;;;;5034518;28;20225;-75
2023/04/10 04:27:05;;;;;;;57.65;34.80;;;7.00;99.90;;;;;;5035499;28;20290;-78
2023/04/10 04:29:32;;;;;;;53.42;35.55;;;7.00;99.90;;;;;;5034876;28;20201;-76
2023/04/10 04:31:58;;;;;;;65.55;35.70;;;7.00;99.90;;;;;;5034419;28;20233;-75
2023/04/10 04:34:27;;;;;;;60.28;36.03;;;7.00;99.90;;;;;;5035262;28;20285;-76
2023/04/10 04:36:53;;;;;;;62.15;35.88;;;7.00;99.90;;;;;;5033540;28;20237;-76
2023/04/10 04:39:22;;;;;;;56.10;35.35;;;7.00;99.90;;;;;;5026840;28;20287;-75
2023/04/10 04:41:48;;;;;;;52.35;33.65;;;7.00;99.90;;;;;;5032314;28;20204;-76
2023/04/10 04:44:18;;;;;;;52.45;34.65;;;7.10;99.90;;;;;;5026757;28;20216;-75
2023/04/10 04:46:51;;;;;;;52.88;34.53;;;7.10;99.90;;;;;;5034550;28;20619;-75
2023/04/10 04:49:18;;;;;;;52.92;34.95;;;7.10;99.90;;;;;;5042403;28;20211;-74
2023/04/10 04:51:46;;;;;;;56.15;35.95;;;7.10;99.90;;;;;;5034589;28;20295;-74
2023/04/10 04:54:13;;;;;;;54.40;34.30;;;7.20;99.90;;;;;;5034243;28;20234;-77
2023/04/10 04:56:40;;;;;;;56.20;35.13;;;7.20;99.90;;;;;;5034706;28;20207;-75
2023/04/10 04:59:07;;;;;;;57.88;35.17;;;7.30;99.90;;;;;;5034490;28;20204;-75
2023/04/10 05:01:34;;;;;;;50.95;35.42;;;7.30;99.90;;;;;;5034435;28;20243;-76
2023/04/10 05:04:01;;;;;;;58.55;36.42;;;7.20;99.90;;;;;;5034589;28;20318;-73
2023/04/10 05:06:28;;;;;;;47.75;32.72;;;7.30;99.90;;;;;;5034948;28;20298;-77
2023/04/10 05:08:56;;;;;;;50.15;34.80;;;7.30;99.90;;;;;;5039183;28;20206;-75
2023/04/10 05:11:24;;;;;;;55.78;33.33;;;7.40;99.90;;;;;;5023493;28;20235;-75
2023/04/10 05:13:51;;;;;;;54.22;34.10;;;7.40;99.90;;;;;;5027012;28;20267;-73
2023/04/10 05:16:17;;;;;;;53.63;32.97;;;7.50;99.90;;;;;;5033986;28;20290;-74
2023/04/10 05:18:45;;;;;;;55.60;33.03;;;7.50;99.90;;;;;;5034613;28;20230;-76
2023/04/10 05:21:12;;;;;;;54.38;33.70;;;7.60;99.90;;;;;;5033890;28;20210;-74
2023/04/10 05:23:38;;;;;;;45.78;34.15;;;7.60;99.90;;;;;;5036120;28;20777;-74
2023/04/10 05:26:08;;;;;;;51.33;31.95;;;7.70;99.90;;;;;;5044561;28;20304;-75
2023/04/10 05:28:35;;;;;;;49.70;32.35;;;7.70;99.90;;;;;;5036018;28;20235;-75
2023/04/10 05:31:02;;;;;;;48.83;34.95;;;7.80;99.90;;;;;;5033950;28;20211;-73
2023/04/10 05:33:28;;;;;;;53.70;33.72;;;7.90;99.90;;;;;;5042116;28;20327;-74
2023/04/10 05:35:56;;;;;;;46.45;31.15;;;8.10;99.90;;;;;;5045015;28;20212;-76
2023/04/10 05:38:23;;;;;;;46.97;32.05;;;8.20;99.90;;;;;;5036661;28;20240;-75
2023/04/10 05:40:50;;;;;;;47.72;32.55;;;8.20;99.90;;;;;;5023069;28;20224;-78
2023/04/10 05:43:20;;;;;;;45.75;30.85;;;8.50;99.90;;;;;;5029876;28;20316;-77
2023/04/10 05:45:47;;;;;;;46.15;32.15;;;8.70;99.90;;;;;;5026650;28;20228;-74
2023/04/10 05:48:14;;;;;;;41.83;29.60;;;9.00;99.90;;;;;;5031463;28;20235;-75
2023/04/10 05:50:41;;;;;;;47.08;32.40;;;9.20;99.90;;;;;;5033124;28;20201;-74
2023/04/10 05:53:12;;;;;;;44.20;30.55;;;9.40;99.90;;;;;;5035392;28;20734;-76
2023/04/10 05:55:39;;;;;;;48.78;31.00;;;9.50;99.90;;;;;;5037123;28;20231;-74
2023/04/10 05:58:07;;;;;;;46.17;30.30;;;9.60;99.90;;;;;;5035159;28;20231;-76
2023/04/10 06:00:35;;;;;;;40.22;30.30;;;9.60;99.90;;;;;;5043648;28;20204;-74
2023/04/10 06:03:02;;;;;;;46.97;31.13;;;9.60;99.90;;;;;;5036982;28;20236;-75
2023/04/10 06:05:30;;;;;;;40.85;30.70;;;9.70;99.90;;;;;;5038869;28;20208;-74
2023/04/10 06:07:57;;;;;;;38.85;27.73;;;10.10;99.90;;;;;;5033104;28;20557;-75
2023/04/10 06:10:24;;;;;;;42.70;30.48;;;10.50;99.90;;;;;;5032924;28;20576;-75
2023/04/10 06:12:51;;;;;;;42.03;28.50;;;11.00;99.90;;;;;;5028597;28;20226;-75
2023/04/10 06:15:18;;;;;;;46.08;30.70;;;11.30;99.90;;;;;;5033830;28;20359;-75
2023/04/10 06:17:46;;;;;;;37.45;26.88;;;11.40;99.90;;;;;;5033118;28;20621;-75
2023/04/10 06:20:13;;;;;;;39.70;28.70;;;11.60;99.90;;;;;;5030722;28;20228;-77
2023/04/10 06:22:40;;;;;;;41.25;27.77;;;11.70;99.90;;;;;;5032135;28;20349;-77
2023/04/10 06:25:07;;;;;;;40.45;29.20;;;12.00;99.90;;;;;;5032769;28;20207;-76
2023/04/10 06:27:35;;;;;;;48.40;28.35;;;12.50;99.90;;;;;;5033332;28;20195;-75
2023/04/10 06:30:02;;;;;;;45.20;28.38;;;13.00;99.90;;;;;;5028739;28;20651;-75
2023/04/10 06:32:29;;;;;;;38.42;28.15;;;13.60;99.90;;;;;;5027644;28;20278;-77
2023/04/10 06:34:57;;;;;;;32.70;27.02;;;14.10;99.90;;;;;;5028670;28;20296;-75
2023/04/10 06:37:30;;;;;;;32.75;26.48;;;14.40;99.70;;;;;;5029356;28;20249;-78
2023/04/10 06:40:03;;;;;;;34.13;27.20;;;14.80;98.10;;;;;;5028291;28;20197;-77
2023/04/10 06:42:30;;;;;;;35.97;27.90;;;15.00;97.30;;;;;;5013810;28;20232;-77
2023/04/10 06:44:57;;;;;;;36.42;26.83;;;15.10;96.60;;;;;;5027608;28;20491;-77
2023/04/10 06:47:24;;;;;;;32.80;26.30;;;15.30;95.80;;;;;;5023013;28;20240;-75
2023/04/10 06:49:51;;;;;;;33.43;26.17;;;15.40;95.70;;;;;;5030707;28;20537;-74
2023/04/10 06:52:19;;;;;;;34.80;26.23;;;16.10;95.20;;;;;;5022558;28;20487;-77
2023/04/10 06:54:46;;;;;;;31.20;24.70;;;16.60;93.10;;;;;;5037200;28;20879;-76
2023/04/10 06:57:13;;;;;;;30.60;24.50;;;16.90;92.60;;;;;;5026655;28;20476;-76
2023/04/10 06:59:40;;;;;;;29.50;23.20;;;17.30;91.80;;;;;;5027678;28;20487;-80
2023/04/10 07:02:08;;;;;;;30.80;25.50;;;17.40;91.20;;;;;;5033935;28;20434;-78
2023/04/10 07:04:35;;;;;;;33.53;25.80;;;17.60;90.60;;;;;;5030487;28;20474;-77
2023/04/10 07:07:02;;;;;;;38.87;26.50;;;17.60;90.40;;;;;;5037929;28;21021;-75
2023/04/10 07:09:30;;;;;;;31.80;23.97;;;18.10;90.20;;;;;;5037559;28;20486;-75
2023/04/10 07:11:57;;;;;;;30.93;25.30;;;18.40;89.60;;;;;;5042278;28;20519;-77
2023/04/10 07:14:24;;;;;;;32.60;26.07;;;18.90;88.10;;;;;;5041879;28;20465;-75
2023/04/10 07:16:52;;;;;;;30.17;25.23;;;19.00;87.00;;;;;;5039356;28;20470;-77
2023/04/10 07:19:19;;;;;;;32.80;24.43;;;19.00;86.90;;;;;;5035496;28;20953;-76
2023/04/10 07:21:48;;;;;;;25.57;21.47;;;19.50;86.10;;;;;;5041067;28;20512;-77
2023/04/10 07:24:16;;;;;;;27.13;21.97;;;19.30;85.80;;;;;;5026862;28;20541;-75
2023/04/10 07:26:45;;;;;;;27.80;22.37;;;19.80;84.10;;;;;;5035497;28;20493;-75
2023/04/10 07:29:12;;;;;;;31.63;25.23;;;20.10;83.50;;;;;;5031919;28;20447;-80
2023/04/10 07:31:39;;;;;;;35.53;24.30;;;20.20;82.60;;;;;;5029969;28;20462;-76
2023/04/10 07:34:06;;;;;;;32.30;24.23;;;20.20;83.30;;;;;;5033273;28;20474;-76
2023/04/10 07:36:33;;;;;;;29.20;24.40;;;20.60;82.10;;;;;;5034665;28;20451;-78
2023/04/10 07:39:01;;;;;;;28.17;21.63;;;21.00;81.10;;;;;;5033801;28;20486;-80
2023/04/10 07:41:28;;;;;;;27.87;22.60;;;21.60;79.80;;;;;;5028469;28;20442;-78
2023/04/10 07:43:56;;;;;;;30.33;23.30;;;21.40;78.80;;;;;;5033116;28;20477;-79
2023/04/10 07:46:23;;;;;;;25.80;21.83;;;21.50;78.80;;;;;;5030912;28;20446;-78
2023/04/10 07:48:50;;;;;;;28.33;23.23;;;21.40;78.30;;;;;;5035823;28;20902;-78
2023/04/10 07:51:17;;;;;;;29.10;23.17;;;21.70;78.50;;;;;;5034474;28;20853;-77
2023/04/10 07:53:44;;;;;;;27.10;23.80;;;22.00;78.00;;;;;;5032222;28;20877;-79
2023/04/10 07:56:16;;;;;;;27.17;22.90;;;21.80;77.50;;;;;;5026996;28;20447;-78
2023/04/10 07:58:44;;;;;;;25.50;21.40;;;21.80;76.90;;;;;;5039228;28;20494;-77
2023/04/10 08:01:12;;;;;;;26.17;23.37;;;22.00;77.30;;;;;;5032552;28;20479;-76
2023/04/10 08:03:40;;;;;;;24.57;21.87;;;22.40;76.90;;;;;;5031635;28;20480;-78
2023/04/10 08:06:09;;;;;;;23.33;20.87;;;22.60;75.70;;;;;;5029632;28;20451;-77
2023/04/10 08:08:36;;;;;;;23.77;20.90;;;22.60;75.20;;;;;;5020707;28;20455;-80
2023/04/10 08:11:04;;;;;;;24.40;21.80;;;23.00;75.60;;;;;;5031988;28;20455;-80
2023/04/10 08:13:32;;;;;;;22.47;20.03;;;23.20;74.10;;;;;;5032038;28;20470;-76
2023/04/10 08:15:58;;;;;;;19.57;17.47;;;23.30;74.50;;;;;;5029128;28;20483;-79
2023/04/10 08:18:27;;;;;;;21.27;18.50;;;23.30;72.40;;;;;;5030699;28;20475;-77
2023/04/10 08:20:54;;;;;;;22.57;18.10;;;23.30;72.70;;;;;;5032661;28;20518;-76
2023/04/10 08:23:21;;;;;;;19.40;17.37;;;23.90;70.80;;;;;;5033844;28;20475;-77
2023/04/10 08:25:48;;;;;;;19.17;17.17;;;23.80;70.30;;;;;;5030962;28;20509;-77
2023/04/10 08:28:15;;;;;;;19.83;17.50;;;24.00;70.00;;;;;;5033511;28;20443;-77
2023/04/10 08:30:42;;;;;;;19.53;16.60;;;24.10;69.20;;;;;;5032753;28;20450;-77
2023/04/10 08:33:09;;;;;;;20.17;17.13;;;23.40;69.90;;;;;;5027798;28;20472;-79
2023/04/10 08:35:37;;;;;;;17.77;15.87;;;23.70;70.50;;;;;;5034206;28;20447;-77
2023/04/10 08:38:04;;;;;;;20.13;18.13;;;23.20;71.30;;;;;;5031152;28;20481;-76
2023/04/10 08:40:31;;;;;;;17.93;16.03;;;23.60;71.20;;;;;;5034188;28;20858;-77
2023/04/10 08:42:58;;;;;;;20.53;18.00;;;23.40;71.00;;;;;;5033266;28;20495;-79
2023/04/10 08:45:25;;;;;;;19.00;15.77;;;23.30;71.30;;;;;;5033908;28;20491;-79
2023/04/10 08:47:55;;;;;;;19.80;17.07;;;23.10;72.10;;;;;;5034436;28;20897;-80
2023/04/10 08:50:22;;;;;;;17.07;15.27;;;23.60;70.90;;;;;;5031129;28;20526;-79
2023/04/10 08:52:54;;;;;;;21.47;17.27;;;24.20;71.10;;;;;;5035267;28;20543;-78
2023/04/10 08:55:21;;;;;;;16.50;14.70;;;24.90;69.20;;;;;;5031293;28;20455;-76
2023/04/10 08:57:49;;;;;;;19.23;17.20;;;23.80;67.50;;;;;;5035196;28;20431;-80
2023/04/10 09:00:16;;;;;;;17.07;15.20;;;24.10;68.10;;;;;;5032711;28;20499;-80
2023/04/10 09:02:43;;;;;;;18.63;16.00;;;23.80;68.30;;;;;;5029798;28;20483;-81
2023/04/10 09:05:12;;;;;;;16.27;14.00;;;23.80;68.40;;;;;;5031231;28;20538;-78
2023/04/10 09:07:40;;;;;;;18.50;15.07;;;23.30;67.10;;;;;;5031530;28;21029;-79
2023/04/10 09:10:09;;;;;;;26.13;15.90;;;23.50;69.30;;;;;;5032143;28;20968;-82
2023/04/10 09:12:46;;;;;;;16.60;14.90;;;23.40;69.40;;;;;;5036980;28;20481;-79
2023/04/10 09:15:14;;;;;;;17.83;14.40;;;23.30;69.50;;;;;;5037350;28;20538;-78
2023/04/10 09:17:57;;;;;;;16.97;14.27;;;23.50;68.50;;;;;;5045496;28;20447;-82
2023/04/10 09:20:25;;;;;;;16.43;13.60;;;23.80;68.00;;;;;;5039071;28;20544;-77
2023/04/10 09:22:52;;;;;;;12.90;11.60;;;23.20;66.40;;;;;;5035639;28;20467;-77
2023/04/10 09:25:32;;;;;;;12.83;11.53;;;23.10;66.90;;;;;;5035533;28;20476;-77
2023/04/10 09:28:03;;;;;;;16.40;11.87;;;23.60;66.50;;;;;;5039307;28;21073;-75
2023/04/10 09:30:36;;;;;;;12.80;10.70;;;23.20;66.10;;;;;;5043963;28;20534;-78
2023/04/10 09:33:03;;;;;;;12.57;11.13;;;23.00;65.50;;;;;;5041296;28;20829;-81
2023/04/10 09:35:39;;;;;;;11.20;10.00;;;23.00;65.00;;;;;;5031428;28;20450;-79
2023/04/10 09:38:17;;;;;;;12.10;10.60;;;22.60;64.00;;;;;;5029219;28;20529;-78
2023/04/10 09:40:46;;;;;;;11.63;9.63;;;22.80;63.70;;;;;;5032838;28;20470;-75
2023/04/10 09:43:21;;;;;;;16.90;9.63;;;22.20;64.80;;;;;;5032383;28;20557;-79
2023/04/10 09:46:00;;;;;;;13.77;10.47;;;22.40;66.50;;;;;;5090316;27;20612;-80
2023/04/10 09:48:27;;;;;;;9.80;8.60;;;21.80;64.60;;;;;;5092721;28;20505;-77
2023/04/10 09:50:55;;;;;;;13.30;10.37;;;22.20;64.80;;;;;;5090083;28;20950;-79
2023/04/10 09:53:22;;;;;;;11.37;9.83;;;21.60;64.90;;;;;;5091328;28;20467;-79
2023/04/10 09:55:50;;;;;;;12.73;9.27;;;21.70;66.00;;;;;;5080516;28;20850;-78
2023/04/10 09:58:17;;;;;;;11.77;10.00;;;21.80;66.40;;;;;;5083430;28;20453;-77
2023/04/10 10:00:47;;;;;;;12.03;10.00;;;21.50;65.50;;;;;;5080163;28;20452;-78
2023/04/10 10:03:17;;;;;;;9.90;8.90;;;21.30;65.00;;;;;;5077527;28;20838;-79
2023/04/10 10:05:47;;;;;;;10.47;9.37;;;21.20;65.70;;;;;;5072099;28;20512;-78
2023/04/10 10:08:16;;;;;;;10.93;9.80;;;21.50;65.60;;;;;;5065421;28;20535;-76
2023/04/10 10:10:46;;;;;;;10.40;9.30;;;21.80;66.40;;;;;;5067364;28;20916;-79
2023/04/10 10:13:17;;;;;;;9.67;8.60;;;22.70;65.30;;;;;;5073556;28;20477;-77
2023/04/10 10:15:50;;;;;;;10.97;9.80;;;21.90;64.90;;;;;;5067213;28;20874;-75
2023/04/10 10:18:26;;;;;;;10.07;8.97;;;21.20;65.40;;;;;;5058121;28;20445;-77
2023/04/10 10:20:54;;;;;;;10.67;9.47;;;21.30;65.30;;;;;;5061285;28;20876;-77
2023/04/10 10:23:22;;;;;;;11.33;9.20;;;21.40;65.40;;;;;;5069155;28;20499;-75
2023/04/10 10:25:50;;;;;;;12.93;10.20;;;21.00;65.90;;;;;;5062691;28;20575;-78
2023/04/10 10:28:18;;;;;;;9.13;8.23;;;20.90;66.00;;;;;;5066511;28;20477;-79
2023/04/10 10:30:47;;;;;;;10.90;8.73;;;20.30;65.50;;;;;;5060980;28;20553;-79
2023/04/10 10:33:14;;;;;;;8.80;7.63;;;20.30;66.50;;;;;;5066314;28;20483;-80
2023/04/10 10:35:43;;;;;;;10.57;9.47;;;20.60;65.90;;;;;;5057178;28;20500;-77
2023/04/10 10:38:11;;;;;;;11.60;8.40;;;20.10;65.30;;;;;;5052962;28;20493;-77
2023/04/10 10:40:47;;;;;;;11.97;9.40;;;20.20;65.70;;;;;;5059712;28;20472;-75
2023/04/10 10:43:18;;;;;;;9.87;8.37;;;20.20;66.70;;;;;;5062675;28;20500;-76
2023/04/10 10:45:52;;;;;;;10.20;8.90;;;19.80;67.30;;;;;;5058916;28;20571;-77
2023/04/10 10:48:19;;;;;;;12.00;7.80;;;19.50;67.70;;;;;;5063707;28;20464;-76
2023/04/10 10:50:56;;;;;;;9.90;8.43;;;19.10;68.00;;;;;;5061559;28;20442;-76
2023/04/10 10:53:37;;;;;;;9.70;8.80;;;19.30;68.50;;;;;;5068196;28;20555;-76
2023/04/10 10:56:35;;;;;;;10.40;8.27;;;19.10;69.30;;;;;;5060336;28;20447;-78
2023/04/10 10:59:03;;;;;;;11.00;9.07;;;19.20;70.00;;;;;;5046116;28;20442;-77
2023/04/10 11:01:30;;;;;;;10.00;8.77;;;19.10;69.10;;;;;;5047908;28;20438;-76
2023/04/10 11:03:58;;;;;;;10.10;9.00;;;19.10;69.10;;;;;;5052621;28;20446;-77
2023/04/10 11:06:52;;;;;;;10.53;9.53;;;19.30;69.50;;;;;;5047702;28;20855;-77
2023/04/10 11:09:47;;;;;;;11.40;10.17;;;19.20;69.80;;;;;;5052890;28;20462;-76
2023/04/10 11:12:15;;;;;;;13.70;9.33;;;19.50;70.40;;;;;;5040197;28;20459;-77
2023/04/10 11:14:43;;;;;;;10.17;8.30;;;19.50;69.70;;;;;;5051671;28;20434;-76
2023/04/10 11:17:11;;;;;;;9.37;7.67;;;19.10;70.10;;;;;;5046183;28;20458;-78
2023/04/10 11:19:58;;;;;;;9.77;8.77;;;19.00;70.00;;;;;;5052346;28;20471;-76
2023/04/10 11:22:27;;;;;;;10.50;9.13;;;19.00;69.60;;;;;;5053846;28;20953;-77
2023/04/10 11:24:59;;;;;;;12.53;8.00;;;18.80;69.30;;;;;;5047004;28;20477;-75
2023/04/10 11:27:40;;;;;;;8.53;7.63;;;18.90;69.10;;;;;;5050360;28;20989;-75
2023/04/10 11:30:25;;;;;;;10.18;8.20;;;19.00;67.90;;;;;;5052384;28;20461;-78
2023/04/10 11:32:52;;;;;;;12.33;9.10;;;19.00;68.10;;;;;;5051062;28;20225;-78
2023/04/10 11:35:20;;;;;;;9.13;8.23;;;19.10;68.20;;;;;;5048087;28;20743;-74
2023/04/10 11:37:48;;;;;;;13.43;9.00;;;19.40;68.90;;;;;;5045465;28;20469;-75
2023/04/10 11:40:15;;;;;;;11.43;8.80;;;19.40;69.10;;;;;;5050333;28;20458;-74
2023/04/10 11:42:42;;;;;;;9.83;8.30;;;19.40;68.90;;;;;;5053582;28;20866;-77
2023/04/10 11:45:28;;;;;;;25.37;8.43;;;19.30;68.90;;;;;;5054567;28;20508;-76
2023/04/10 11:47:55;;;;;;;9.03;7.20;;;19.20;69.10;;;;;;5051603;28;20467;-76
2023/04/10 11:50:22;;;;;;;10.97;8.40;;;19.30;68.90;;;;;;5055107;28;20473;-75
2023/04/10 11:52:51;;;;;;;11.60;8.80;;;19.30;68.80;;;;;;5051670;28;20468;-76
2023/04/10 11:55:18;;;;;;;13.90;8.80;;;19.30;68.50;;;;;;5053878;28;20497;-78
2023/04/10 11:57:46;;;;;;;7.90;7.03;;;19.20;69.00;;;;;;5058535;28;20444;-76
2023/04/10 12:00:23;;;;;;;8.07;7.27;;;19.00;69.30;;;;;;5061794;28;20912;-76
2023/04/10 12:02:52;;;;;;;8.20;7.40;;;18.80;69.40;;;;;;5050429;28;20474;-77
2023/04/10 12:05:20;;;;;;;8.17;7.20;;;18.80;69.00;;;;;;5056396;28;20473;-75
2023/04/10 12:07:48;;;;;;;9.17;8.27;;;18.50;69.10;;;;;;5058202;28;20465;-76
2023/04/10 12:10:18;;;;;;;7.83;7.10;;;18.50;69.40;;;;;;5055809;28;20952;-77
2023/04/10 12:12:45;;;;;;;8.67;7.13;;;18.60;69.30;;;;;;5052550;28;20470;-76
2023/04/10 12:15:28;;;;;;;7.97;7.00;;;18.50;69.50;;;;;;5055161;28;20525;-78
2023/04/10 12:17:55;;;;;;;8.97;8.17;;;18.60;70.00;;;;;;5041208;28;20452;-77
2023/04/10 12:20:26;;;;;;;10.70;6.83;;;18.70;70.00;;;;;;5050548;28;20449;-76
2023/04/10 12:23:00;;;;;;;11.07;7.90;;;19.00;69.80;;;;;;5053034;28;20551;-75
2023/04/10 12:25:28;;;;;;;8.97;6.87;;;19.00;69.10;;;;;;5051610;28;20480;-77
2023/04/10 12:27:55;;;;;;;8.37;7.53;;;19.10;69.20;;;;;;5057906;28;20900;-77
2023/04/10 12:30:22;;;;;;;8.17;7.30;;;19.20;69.30;;;;;;5053338;28;20453;-77
2023/04/10 12:32:53;;;;;;;7.67;6.67;;;19.60;69.60;;;;;;5052038;28;20549;-76
2023/04/10 12:35:20;;;;;;;7.57;6.80;;;19.80;67.70;;;;;;5055346;28;20450;-76
2023/04/10 12:37:49;;;;;;;8.40;7.30;;;19.60;67.30;;;;;;5055575;28;20985;-76
2023/04/10 12:40:16;;;;;;;7.93;7.13;;;19.90;67.10;;;;;;5059912;28;20472;-77
2023/04/10 12:42:47;;;;;;;7.57;6.83;;;19.90;67.90;;;;;;5063778;28;20470;-77
2023/04/10 12:45:45;;;;;;;7.53;6.80;;;19.90;66.80;;;;;;5063474;28;20478;-76